Date,TemperatureHighF,TemperatureAvgF,TemperatureLowF,DewpointHighF,DewpointAvgF,DewpointLowF,HumidityHigh,HumidityAvg,HumidityLow,PressureMaxIn,PressureMinIn,WindSpeedMaxMPH,WindSpeedAvgMPH,GustSpeedMaxMPH,PrecipitationSumIn
2013-2-1,69.1,58.6,48.6,48.8,41.6,37.2,69,54,37,30.26,30.17,8,4,8,0.00
2013-2-2,74.9,62.4,51.7,54.6,47.2,37.8,71,58,47,30.23,30.09,5,2,5,0.00
2013-2-3,72.0,63.0,55.8,53.2,46.7,36.6,74,57,28,30.16,30.05,6,2,6,0.00
2013-2-4,73.3,62.2,52.7,52.5,48.5,43.2,79,62,41,30.12,30.00,4,1,4,0.00
2013-2-5,77.8,66.4,55.4,61.8,53.9,45.6,78,65,56,30.05,29.97,6,1,6,0.00
2013-2-6,80.8,70.2,62.1,68.9,61.3,55.2,79,74,63,30.08,29.99,3,1,3,0.00
2013-2-7,81.4,71.9,64.4,66.1,62.9,59.1,86,74,54,30.04,29.92,6,1,6,0.00
2013-2-8,80.5,72.3,67.3,70.7,65.3,61.9,86,79,66,30.04,29.88,5,1,5,0.00
2013-2-9,77.8,68.8,60.1,65.1,60.7,55.8,89,76,61,30.14,30.02,6,2,6,0.00
2013-2-10,81.7,72.7,65.3,64.5,61.5,58.7,79,69,51,30.20,30.10,8,3,8,0.00
2013-2-11,83.2,72.9,65.7,69.7,64.5,60.4,84,75,62,30.17,30.07,5,2,5,0.00
2013-2-12,83.9,73.9,66.6,73.1,66.9,61.6,88,79,68,30.09,29.95,8,2,8,0.00
2013-2-13,84.6,75.9,70.2,75.0,69.9,64.6,89,82,70,29.99,29.90,10,2,10,0.00
2013-2-14,80.3,68.4,61.2,73.6,63.8,57.3,89,85,79,30.01,29.85,9,3,9,1.21
2013-2-15,67.9,65.6,61.4,63.8,61.6,57.5,88,87,83,30.03,29.92,2,1,2,0.16
2013-2-16,68.4,64.7,61.4,62.2,56.1,46.2,89,74,57,30.07,29.89,13,4,13,0.02
2013-2-17,61.6,53.8,45.7,47.6,34.1,25.0,60,48,36,30.29,30.07,10,4,10,0.00
2013-2-18,70.7,56.3,44.8,50.7,41.4,28.9,71,58,47,30.28,30.17,8,3,8,0.00
2013-2-19,78.8,67.5,56.0,65.9,58.1,49.5,80,72,62,30.16,30.06,6,1,6,0.00
2013-2-20,80.3,69.7,61.6,65.2,60.6,56.3,87,74,54,30.08,29.97,4,1,4,0.00
2013-2-21,83.9,72.0,64.4,70.8,63.5,59.2,88,75,58,30.05,29.96,5,1,5,0.00
2013-2-22,83.9,73.9,66.2,71.7,66.2,61.2,88,77,60,30.06,29.98,9,2,9,0.00
2013-2-23,83.7,75.4,69.7,74.0,69.1,64.7,88,81,72,30.01,29.90,8,2,8,0.01
2013-2-24,86.4,76.9,71.3,76.2,70.4,67.2,88,81,68,29.96,29.89,5,1,5,0.01
2013-2-25,85.0,75.6,68.8,74.0,69.1,64.4,89,81,63,29.89,29.78,5,1,5,0.00
2013-2-26,84.8,77.8,73.8,75.1,71.6,67.5,88,81,71,29.88,29.75,10,3,10,0.00
2013-2-27,73.6,71.1,68.9,67.5,64.7,62.9,84,80,74,29.96,29.85,4,1,4,0.08
2013-2-28,71.8,67.4,63.4,62.9,58.9,56.3,82,74,61,30.01,29.91,6,2,6,0.00